Station WYCM6 - 8747437 - Bay Waveland Yacht Club, MS Image indicating link to RSS feed of recent meteorological observations for station WYCM6


Conditions at WYCM6 as of
(5:30 am CDT)
1030 GMT on 09/01/2026:
     

Click on the graph icon in the table below to see a time series plot of the last five days of that observation.

5-day plot - Wind Direction Wind Direction (WDIR):SSE ( 160 deg true )
5-day plot - Wind Speed Wind Speed (WSPD): 6.0 kts
5-day plot - Wind Gust Wind Gust (GST): 8.0 kts
5-day plot - Atmospheric Pressure Atmospheric Pressure (PRES):29.99 in
5-day plot - Air Temperature Air Temperature (ATMP): 84.2 °F
5-day plot - Water Temperature Water Temperature (WTMP): 86.2 °F
5-day plot -  Wind Speed, Wind Gust and Atmospheric Pressure Combined plot of Wind Speed, Gust, and Air Pressure
NOS Water Level Observation Network Water Level
Previous observations
TIME
(CDT)
5-day plot - Wind Direction
WDIR
 
5-day plot - Wind Speed
WSPD
kts
5-day plot - Wind Gust
GST
kts
5-day plot - Wave Height
WVHT
ft
5-day plot - Dominant Wave Period
DPD
sec
5-day plot - Average Wave Period
APD
sec
5-day plot - Mean Wave Direction
MWD
 
5-day plot - Atmospheric Pressure
PRES
in
5-day plot - Pressure Tendency
PTDY
in
5-day plot - Air Temperature
ATMP
°F
5-day plot - Water Temperature
WTMP
°F
5-day plot - Dew Point
DEWP
°F
5-day plot - Salinity
SAL
psu
5-day plot - Visibility
VIS
nmi
5-day plot - Tide (above MLLW)
TIDE
ft
2026-09-01 05:24 amSSE 7.0 8.0----29.98- 84.2 86.2----
2026-09-01 05:18 amSSE 7.0 8.0----29.98-- 86.2----
2026-09-01 05:12 amSSE 8.0 8.9----29.98-- 86.2----
2026-09-01 05:06 amSSE 7.0 8.0----29.98-- 86.2----
2026-09-01 05:00 am S 7.0 8.9----29.98- 84.0 86.4----
2026-09-01 04:54 amSSE 8.0 9.9----29.98- 84.2 86.4----
2026-09-01 04:48 amSSE 7.0 9.9----29.98- 84.2 86.4----
2026-09-01 04:42 am S 7.0 9.9----29.98- 84.0 86.4----
2026-09-01 04:36 am S 6.0 9.9----29.97- 84.0 86.4----
2026-09-01 04:30 am S 5.1 8.0----29.97- 84.0 86.4----
2026-09-01 04:24 amSSE 7.0 9.9----29.98- 84.2 86.4----
2026-09-01 04:18 amSSE 9.9 11.1----29.98-- 86.4----
2026-09-01 04:12 amSSE 8.0 9.9----29.97-- 86.4----
2026-09-01 04:06 amSSE 8.9 9.9----29.98-- 86.4----
2026-09-01 04:00 amSSE 8.0 9.9----29.97-0.02 84.2 86.4----
2026-09-01 03:54 amSSE 8.9 11.1----29.97- 84.2 86.4----
2026-09-01 03:48 amSSE 8.9 9.9----29.97-- 86.4----
2026-09-01 03:42 am SE 8.9 9.9----29.98-- 86.4----
2026-09-01 03:36 am SE 8.9 9.9----29.98-- 86.4----
2026-09-01 03:30 amSSE 8.9 9.9----29.98- 84.4 86.4----
2026-09-01 03:24 amSSE 8.9 9.9----29.98- 84.4 86.4----
2026-09-01 03:18 amSSE 8.0 9.9----29.98-- 86.4----
2026-09-01 03:12 amSSE 8.9 9.9----29.98-- 86.4----
2026-09-01 03:06 amSSE 8.0 9.9----29.98-- 86.4----
2026-09-01 03:00 am SE 7.0 9.9----29.98-0.01 84.4 86.4----
2026-09-01 02:54 amSSE 8.0 9.9----29.98- 84.4 86.4----
2026-09-01 02:48 amSSE 8.0 11.1----29.98- 84.4 86.4----
2026-09-01 02:42 am SE 8.0 9.9----29.98- 84.4 86.4----
2026-09-01 02:36 am SE 8.0 8.9----29.98- 84.4 86.4----
2026-09-01 02:30 am SE 8.9 11.1----29.98- 84.2 86.4----
2026-09-01 02:24 amESE 8.9 11.1----29.98- 84.2 86.4----
2026-09-01 02:18 am SE 7.0 9.9----29.99- 84.4 86.4----
2026-09-01 02:12 am SE 8.9 13.0----29.99- 84.4 86.4----
2026-09-01 02:06 amESE 9.9 12.0----29.98- 84.4 86.4----
2026-09-01 02:00 am SE 9.9 12.0------ 84.4 86.4----
2026-09-01 01:54 am SE 11.1 13.0------ 84.4 86.4----
2026-09-01 01:48 am SE 9.9 13.0----29.99- 84.6 86.4----
2026-09-01 01:42 am SE 9.9 13.0----29.99- 84.6 86.4----
2026-09-01 01:36 am SE 11.1 13.0----29.99- 84.6 86.4----
2026-09-01 01:30 am SE 11.1 13.0----29.99-- 86.4----
2026-09-01 01:24 amSSE 12.0 13.0----29.99-- 86.4----
2026-09-01 01:18 am SE 11.1 13.0----29.99-- 86.4----
2026-09-01 01:12 am SE 11.1 13.0----29.99-- 86.4----
2026-09-01 01:06 am SE 12.0 14.0----29.99-- 86.4----
2026-09-01 01:00 am SE 11.1 14.0----29.99+0.00 84.6 86.5----
2026-09-01 12:54 am SE 12.0 14.0----29.99- 84.6 86.4----
2026-09-01 12:48 am SE 11.1 13.0----29.99- 84.6 86.5----
2026-09-01 12:42 am SE 12.0 15.9----29.99- 84.6 86.5----
2026-09-01 12:36 am SE 12.0 15.0----29.99- 84.6 86.5----
2026-09-01 12:30 am SE 13.0 15.0----29.99- 84.6 86.5----
2026-09-01 12:24 am SE 13.0 15.0----29.99- 84.6 86.7----
2026-09-01 12:18 am SE 13.0 15.0----29.99-- 86.7----
2026-09-01 12:12 amSSE 12.0 14.0----29.99-- 86.9----
2026-09-01 12:06 am SE 12.0 13.0----29.99-- 86.9----
2026-09-01 12:00 am SE 11.1 14.0----29.99+0.01 84.6 87.1----
2026-08-31 11:54 pm SE 12.0 15.0----29.99- 84.6 87.1----
2026-08-31 11:48 pm SE 13.0 15.0----29.99- 84.7 87.1----
2026-08-31 11:42 pm SE 13.0 15.0----30.00- 84.7 87.1----
2026-08-31 11:36 pm SE 12.0 15.0----30.00- 84.6 87.3----
2026-08-31 11:30 pm SE 11.1 14.0----30.00- 84.6 87.3----
2026-08-31 11:24 pmESE 11.1 15.0----29.99- 84.6 87.3----
2026-08-31 11:18 pm SE 12.0 14.0----29.99-- 87.3----
2026-08-31 11:12 pmESE 12.0 13.0----29.99-- 87.4----
2026-08-31 11:06 pmESE 11.1 14.0----29.99-- 87.4----
2026-08-31 11:00 pmESE 9.9 12.0----30.00+0.02 84.6 87.4----
2026-08-31 10:54 pmESE 8.9 12.0----29.99- 84.4 87.4----
2026-08-31 10:48 pmESE 9.9 12.0----29.99-- 87.4----
2026-08-31 10:42 pmESE 8.9 12.0----29.99-- 87.4----
2026-08-31 10:36 pmESE 9.9 12.0----30.00-- 87.4----
2026-08-31 10:30 pmESE 8.9 11.1----30.00- 84.6 87.4----
2026-08-31 10:24 pmESE 8.9 12.0----30.00- 84.4 87.4----
2026-08-31 10:18 pmESE 11.1 12.0------- 87.4----
2026-08-31 10:12 pmESE 9.9 13.0------- 87.4----
2026-08-31 10:06 pmESE 11.1 13.0------- 87.4----
2026-08-31 10:00 pmESE 8.9 12.0----29.99+0.03 84.4 87.4----
2026-08-31 09:54 pm E 9.9 12.0----29.99- 84.6 87.4----
2026-08-31 09:48 pm E 8.9 11.1----29.99- 84.4 87.4----
2026-08-31 09:42 pm E 8.9 12.0----30.00- 84.6 87.6----
2026-08-31 09:36 pm E 8.0 9.9----30.00- 84.6 87.6----
2026-08-31 09:30 pm E 7.0 8.9----30.00- 84.4 87.6----
2026-08-31 09:24 pm E 7.0 9.9----29.99- 84.6 87.6----
2026-08-31 09:18 pm E 7.0 9.9----29.99-- 87.8----
2026-08-31 09:12 pm E 8.9 11.1----29.99-- 87.8----
2026-08-31 09:06 pm E 8.9 11.1----29.99-- 87.8----
2026-08-31 09:00 pmESE 9.9 11.1----29.98+0.00 84.7 87.8----
2026-08-31 08:54 pmESE 9.9 12.0----29.98- 84.7 87.8----
2026-08-31 08:48 pmESE 9.9 11.1----29.98- 84.6 87.8----
2026-08-31 08:42 pmESE 9.9 11.1----29.98- 84.6 87.8----
2026-08-31 08:36 pmESE 8.9 12.0----29.97- 84.7 87.8----
2026-08-31 08:30 pmESE 12.0 13.0----29.97- 84.7 87.8----
2026-08-31 08:24 pm SE 9.9 12.0----29.97- 84.7 87.8----
2026-08-31 08:18 pmESE 9.9 12.0----29.97-- 88.0----
2026-08-31 08:12 pmESE 7.0 8.9----29.97-- 88.0----
2026-08-31 08:06 pmESE 8.0 9.9----29.98-- 88.0----
2026-08-31 08:00 pmESE 8.0 12.0----29.98+0.00 84.6 88.0----
2026-08-31 07:54 pmESE 9.9 12.0----29.98- 84.6 88.0----
2026-08-31 07:48 pmESE 9.9 12.0----29.98-- 88.0----
2026-08-31 07:42 pmESE 8.9 13.0----29.98-- 88.0----
2026-08-31 07:36 pm SE 9.9 12.0----29.97-- 88.0----
2026-08-31 07:30 pm SE 9.9 12.0----29.97- 84.6 88.2----
2026-08-31 07:24 pm SE 11.1 13.0----29.96- 84.6 88.2----
2026-08-31 07:18 pm SE 8.9 12.0----29.96-- 88.2----
2026-08-31 07:12 pm SE 9.9 12.0----29.96-- 88.2----
2026-08-31 07:06 pm SE 9.9 13.0----29.97-- 88.2----
2026-08-31 07:00 pm SE 8.0 9.9----29.97-0.03 84.4 88.0----
2026-08-31 06:54 pm SE 8.9 12.0----29.97- 84.4 88.0----
2026-08-31 06:48 pm SE 8.0 11.1----29.97-- 88.0----
2026-08-31 06:42 pm SE 11.1 12.0----29.98-- 88.0----
2026-08-31 06:36 pm SE 8.9 11.1----29.98-- 88.0----
2026-08-31 05:48 pmESE 9.9 12.0----29.98- 84.9 87.6----
2026-08-31 05:42 pmESE 9.9 12.0----29.98- 84.9 87.6----
2026-08-31 05:36 pmESE 9.9 12.0----29.98- 84.9 87.6----
2026-08-31 05:30 pmESE 9.9 14.0----29.98- 84.7 87.6----
2026-08-31 05:24 pmESE 8.9 12.0----29.98- 84.7 87.8----
2026-08-31 05:18 pmESE 8.9 12.0----29.98- 84.7 87.8----
2026-08-31 05:12 pmESE 8.9 12.0----29.98- 84.9 87.8----
2026-08-31 05:06 pmESE 9.9 13.0----29.98- 84.9 87.8----
2026-08-31 05:00 pmESE 8.9 11.1----29.98-0.04 84.9 87.8----
2026-08-31 04:54 pmESE 11.1 12.0----29.98- 84.9 87.6----
2026-08-31 04:48 pmESE 11.1 12.0----29.98- 84.9 87.6----
2026-08-31 04:42 pmESE 11.1 13.0----29.98- 84.9 87.6----
2026-08-31 04:36 pmESE 11.1 13.0----29.98- 84.7 87.6----
2026-08-31 04:30 pmESE 11.1 14.0----29.98- 84.9 87.6----
2026-08-31 04:24 pmESE 12.0 14.0----29.98- 84.9 87.6----
2026-08-31 04:18 pmESE 11.1 13.0----29.99-- 87.6----
2026-08-31 04:12 pm SE 11.1 13.0----29.99-- 87.6----
2026-08-31 04:06 pmESE 9.9 11.1----29.99-- 87.6----
2026-08-31 04:00 pm SE 8.0 11.1----29.99-0.02 84.6 87.6----
2026-08-31 03:54 pm SE 8.0 9.9----29.99- 84.4 87.6----
2026-08-31 03:48 pm SE 8.0 8.9----29.99- 84.2 87.6----
2026-08-31 03:42 pm SE 9.9 11.1----29.99- 84.2 87.6----
2026-08-31 03:36 pm SE 8.9 11.1----29.99- 84.0 87.6----
2026-08-31 03:30 pm SE 8.9 11.1----29.99- 84.0 87.6----
2026-08-31 03:24 pm SE 9.9 12.0----30.00- 83.8 87.6----
2026-08-31 03:18 pmSSE 9.9 12.0----30.00-- 87.6----
2026-08-31 03:12 pmSSE 9.9 12.0----30.00-- 87.6----
2026-08-31 03:06 pmSSE 9.9 12.0----30.00-- 87.8----
2026-08-31 03:00 pmSSE 11.1 15.0----30.00-0.03 83.7 87.8----
2026-08-31 02:54 pmSSE 13.0 17.1----30.00- 83.8 87.8----
2026-08-31 02:48 pmESE 14.0 15.9----30.00- 84.7 87.8----
2026-08-31 02:42 pmESE 12.0 15.0----30.00- 85.1 87.6----
2026-08-31 02:36 pmESE 13.0 15.9----30.00- 84.7 87.6----
2026-08-31 02:30 pmESE 13.0 15.9----30.00- 84.7 87.6----
2026-08-31 02:24 pm SE 12.0 15.9----30.00- 85.1 87.4----
2026-08-31 02:18 pmESE 14.0 17.1----30.01-- 87.4----
2026-08-31 02:12 pmESE 14.0 17.1----30.01-- 87.3----
2026-08-31 02:06 pmESE 12.0 15.0----30.01-- 87.1----
2026-08-31 02:00 pmESE 14.0 15.9----30.02-0.02 85.1 86.9----
2026-08-31 01:54 pm SE 13.0 15.0----30.02- 84.9 86.9----
2026-08-31 01:48 pmESE 14.0 15.9----30.02- 84.9 87.1----
2026-08-31 01:42 pmESE 14.0 15.9----30.02- 85.1 86.9----
2026-08-31 01:36 pmESE 12.0 14.0----30.02- 85.1 86.9----
2026-08-31 01:30 pmESE 13.0 15.9----30.02- 85.1 86.9----
2026-08-31 01:24 pmESE 12.0 14.0----30.02- 85.1 86.9----
2026-08-31 01:18 pmESE 13.0 14.0----30.02-- 86.7----
2026-08-31 01:12 pmESE 9.9 13.0----30.02-- 86.7----
2026-08-31 01:06 pm SE 11.1 13.0----30.01-- 86.5----
2026-08-31 01:00 pmESE 12.0 15.0----30.02-0.02 84.7 86.5----
2026-08-31 12:54 pm SE 13.0 14.0----30.02- 84.7 86.4----
2026-08-31 12:48 pm SE 11.1 14.0----30.02-- 86.4----
2026-08-31 12:42 pmESE 12.0 14.0----30.02-- 86.2----
2026-08-31 12:36 pmESE 12.0 15.0----30.02-- 86.2----
2026-08-31 12:30 pmESE 13.0 15.0----30.02- 84.7 86.2----
2026-08-31 12:24 pmESE 15.0 17.1----30.03- 84.7 86.0----
2026-08-31 12:18 pmESE 13.0 15.0----30.03-- 85.8----
2026-08-31 12:12 pmESE 12.0 15.9----30.03-- 85.6----
2026-08-31 12:06 pm E 13.0 15.0----30.03-- 85.6----
2026-08-31 12:00 pmESE 13.0 17.1----30.03+0.01 84.7 85.5----
2026-08-31 11:54 am E 13.0 17.1----30.03- 84.9 85.5----
2026-08-31 11:48 am E 14.0 15.9----30.03- 84.7 85.1----
2026-08-31 11:42 amESE 13.0 15.9----30.03- 85.1 84.9----
2026-08-31 11:36 am E 13.0 15.0----30.04- 85.3 84.9----
2026-08-31 11:30 am E 13.0 15.0----30.04- 85.1 84.9----
2026-08-31 11:24 am E 15.9 17.1----30.04- 84.9 84.7----
2026-08-31 11:18 am E 13.0 15.0----30.04-- 84.7----
2026-08-31 11:12 am E 14.0 18.1----30.04-- 84.7----
2026-08-31 11:06 amESE 15.0 18.1----30.04-- 84.7----
2026-08-31 11:00 amESE 14.0 15.9----30.04+0.03 85.1 84.7----
2026-08-31 10:54 am E 13.0 14.0----30.04- 85.5 84.7----
2026-08-31 10:48 am E 9.9 13.0----30.04- 85.5 84.7----
2026-08-31 10:42 am E 9.9 12.0----30.03- 85.3 84.7----
2026-08-31 10:36 am E 9.9 12.0----30.03- 84.9 84.7----
2026-08-31 10:30 amENE 9.9 12.0----30.03- 84.6 84.7----
2026-08-31 10:24 amENE 8.9 11.1----30.03- 84.4 84.6----
2026-08-31 10:18 amENE 8.9 12.0----30.03-- 84.6----
2026-08-31 10:12 amENE 9.9 11.1----30.03-- 84.6----
2026-08-31 10:06 amENE 9.9 12.0----30.03-- 84.6----
2026-08-31 10:00 amENE 8.9 12.0----30.03+0.05 83.7 84.6----
2026-08-31 09:54 amENE 9.9 9.9----30.03- 83.5 84.6----
2026-08-31 09:48 amENE 8.9 11.1----30.03- 83.3 84.6----
2026-08-31 09:42 amENE 9.9 11.1----30.03- 83.3 84.6----
2026-08-31 09:36 amENE 9.9 12.0----30.03- 83.1 84.6----
2026-08-31 09:30 amENE 11.1 13.0----30.03- 83.1 84.6----
2026-08-31 09:24 amENE 11.1 12.0----30.03- 82.8 84.6----
2026-08-31 09:18 amENE 9.9 13.0----30.03-- 84.7----
2026-08-31 09:12 amENE 11.1 14.0----30.02-- 84.7----
2026-08-31 09:06 amENE 9.9 12.0----30.02-- 84.7----
2026-08-31 09:00 amENE 9.9 11.1----30.02+0.04 82.2 84.7----
2026-08-31 08:54 amENE 11.1 13.0----30.02- 81.9 84.7----
2026-08-31 08:48 amENE 12.0 14.0----30.02-- 84.7----
2026-08-31 08:42 am E 12.0 13.0----30.02-- 84.7----
2026-08-31 08:36 amENE 12.0 14.0----30.02-- 84.7----
2026-08-31 08:30 amENE 13.0 15.0----30.01- 81.1 84.7----
2026-08-31 08:24 amENE 11.1 13.0----30.01- 80.8 84.7----
2026-08-31 08:18 amENE 11.1 12.0----30.01-- 84.7----
2026-08-31 08:12 amENE 9.9 12.0----30.01-- 84.7----
2026-08-31 08:06 amENE 9.9 12.0----30.01-- 84.7----
2026-08-31 08:00 amENE 9.9 12.0----30.01+0.04 80.1 84.7----
2026-08-31 07:54 amENE 9.9 12.0----30.01- 79.9 84.7----
2026-08-31 07:48 amENE 12.0 14.0----30.00-- 84.9----
2026-08-31 07:42 amENE 12.0 13.0----30.00-- 84.9----
2026-08-31 07:36 amENE 11.1 12.0----30.00-- 84.9----
2026-08-31 07:30 amENE 11.1 12.0----30.00- 79.3 84.9----
2026-08-31 07:24 amENE 11.1 12.0----30.00- 79.3 84.9----
2026-08-31 07:18 amENE 11.1 13.0----29.99-- 84.9----
2026-08-31 07:12 amENE 11.1 13.0----29.99-- 84.9----
2026-08-31 07:06 amENE 12.0 13.0----29.99-- 84.9----
2026-08-31 07:00 amENE 11.1 12.0----29.99+0.03 79.0 84.9----
2026-08-31 06:54 amENE 9.9 12.0----29.99- 79.2 84.9----
2026-08-31 06:48 amENE 9.9 12.0----29.98-- 84.9----
2026-08-31 06:42 amENE 11.1 13.0----29.98-- 84.9----
2026-08-31 06:36 amENE 11.1 12.0----29.98-- 84.9----
2026-08-31 06:30 amENE 11.1 12.0----29.98- 79.0 84.9----
2026-08-31 06:24 amENE 11.1 12.0----29.98- 78.8 84.9----
2026-08-31 06:18 amENE 11.1 13.0----29.98-- 84.9----
2026-08-31 06:12 amENE 9.9 11.1----29.98-- 84.9----
2026-08-31 06:06 amENE 9.9 12.0----29.98-- 85.1----
2026-08-31 06:00 amENE 9.9 12.0----29.98+0.02 78.8 85.1----
2026-08-31 05:54 amENE 9.9 12.0----29.98- 79.0 85.1----